Time;durP1;ratioP1;P1;durP2;ratioP2;P2;SDS_P1;SDS_P2;PMS_P1;PMS_P2;Temp;Humidity;BMP_temperature;BMP_pressure;BME280_temperature;BME280_humidity;BME280_pressure;Samples;Min_cycle;Max_cycle;Signal;HPM_P1;HPM_P2
2020/12/14 00:01:36;;;;;;;2.33;0.77;;;8.80;99.90;;;;;;4026133;29;20186;-92
2020/12/14 18:05:09;;;;;;;9.98;2.70;;;11.50;99.90;;;;;;2532965;23;20516;-91
2020/12/14 18:07:31;;;;;;;8.85;2.60;;;11.60;99.90;;;;;;4007410;29;20341;-94
2020/12/14 18:09:32;;;;;;;12.25;2.90;;;11.60;99.90;;;;;;4024858;29;20179;-93
2020/12/14 18:11:36;;;;;;;6.47;2.65;;;11.60;99.90;;;;;;4040134;29;20197;-95
2020/12/14 18:13:36;;;;;;;6.80;2.58;;;11.50;99.90;;;;;;4024188;29;20264;-94
2020/12/14 18:15:37;;;;;;;5.30;2.20;;;11.40;99.90;;;;;;4024581;29;20202;-94
2020/12/14 18:17:38;;;;;;;9.45;2.63;;;11.50;99.90;;;;;;4024272;29;20186;-94
2020/12/14 18:19:39;;;;;;;11.30;2.95;;;11.50;99.90;;;;;;4009179;29;20627;-95
2020/12/14 18:21:40;;;;;;;3.40;2.10;;;11.60;99.90;;;;;;4009120;29;20293;-95
2020/12/14 18:23:41;;;;;;;8.50;3.13;;;11.60;99.90;;;;;;4009113;29;20190;-95
2020/12/14 18:25:42;;;;;;;6.15;2.83;;;11.80;99.90;;;;;;4024877;29;20678;-95
2020/12/14 18:27:46;;;;;;;7.70;2.60;;;11.70;99.90;;;;;;4009606;29;20231;-95
2020/12/14 18:29:49;;;;;;;6.82;2.08;;;11.70;99.90;;;;;;4025134;29;20170;-95
2020/12/14 18:32:08;;;;;;;7.78;2.13;;;11.60;99.90;;;;;;4024764;29;20185;-94
2020/12/14 18:36:13;;;;;;;6.95;1.90;;;11.60;99.90;;;;;;4024399;29;20256;-95
2020/12/14 21:30:50;;;;;;;2.97;2.17;;;11.40;99.90;;;;;;4155726;23;20260;-92
2020/12/14 21:33:14;;;;;;;5.53;2.67;;;11.50;99.90;;;;;;4028538;29;20190;-93
2020/12/14 21:38:56;;;;;;;6.07;2.20;;;11.30;99.90;;;;;;4337111;23;20245;-93
2020/12/14 21:43:57;;;;;;;4.90;2.23;;;11.20;99.90;;;;;;4146836;23;20755;-95
2020/12/14 21:46:05;;;;;;;5.67;2.57;;;11.20;99.90;;;;;;4031449;29;20202;-96
2020/12/14 21:48:31;;;;;;;6.73;2.50;;;11.20;99.90;;;;;;4041655;29;20189;-94
2020/12/14 21:51:02;;;;;;;6.75;2.90;;;11.30;99.90;;;;;;4026828;29;20179;-96
2020/12/14 21:53:09;;;;;;;8.18;2.83;;;11.50;99.90;;;;;;4040660;29;20200;-92
2020/12/14 21:55:13;;;;;;;6.07;2.60;;;11.60;99.90;;;;;;4041710;29;20649;-96
2020/12/14 21:57:41;;;;;;;6.55;2.42;;;11.60;99.90;;;;;;4041960;29;20623;-93
2020/12/14 21:59:46;;;;;;;6.03;2.25;;;11.50;99.90;;;;;;4041480;29;20166;-95
2020/12/14 22:01:46;;;;;;;5.53;2.38;;;11.60;99.90;;;;;;4026066;29;20254;-96
2020/12/14 22:03:52;;;;;;;5.68;2.70;;;11.60;99.90;;;;;;4028330;29;20175;-95
2020/12/14 22:05:59;;;;;;;3.72;2.28;;;11.70;99.90;;;;;;4041446;29;20225;-95
2020/12/14 22:08:21;;;;;;;4.00;2.42;;;11.70;99.90;;;;;;4027532;29;20206;-95
2020/12/14 22:10:23;;;;;;;4.82;2.28;;;11.50;99.90;;;;;;4043187;29;20225;-96
2020/12/14 22:12:27;;;;;;;4.10;2.17;;;11.40;99.90;;;;;;4026597;29;20330;-95
2020/12/14 22:14:46;;;;;;;5.45;2.60;;;11.50;99.90;;;;;;4026437;29;20221;-95
2020/12/14 22:17:02;;;;;;;4.53;1.90;;;11.60;99.90;;;;;;4039831;29;20209;-96
2020/12/14 22:19:03;;;;;;;6.27;2.20;;;11.40;99.90;;;;;;4027704;29;20182;-94
2020/12/14 22:21:09;;;;;;;6.03;2.30;;;11.30;99.90;;;;;;4044056;29;20214;-95
2020/12/14 22:23:17;;;;;;;6.03;2.60;;;11.10;99.90;;;;;;4026926;29;20551;-95
2020/12/14 22:25:19;;;;;;;6.37;2.20;;;11.20;99.90;;;;;;4027532;29;20175;-95
2020/12/14 22:27:23;;;;;;;3.80;2.00;;;11.20;99.90;;;;;;4025628;29;20558;-95
2020/12/14 22:29:23;;;;;;;4.57;1.98;;;11.30;99.90;;;;;;4027618;29;20191;-96
2020/12/14 22:31:27;;;;;;;6.10;2.45;;;11.20;99.90;;;;;;4026541;29;20555;-95
2020/12/14 22:33:30;;;;;;;7.70;2.47;;;11.20;99.90;;;;;;4041298;29;20174;-96
2020/12/14 22:35:33;;;;;;;5.33;2.40;;;11.20;99.90;;;;;;4040963;29;20189;-94
2020/12/14 22:37:37;;;;;;;4.85;2.35;;;11.20;99.90;;;;;;4027687;29;20174;-94
2020/12/14 22:39:40;;;;;;;3.87;2.10;;;11.10;99.90;;;;;;4041100;29;20572;-93
2020/12/14 22:41:48;;;;;;;3.88;2.20;;;10.90;99.90;;;;;;4025371;29;20218;-94
2020/12/14 22:43:51;;;;;;;4.78;2.00;;;10.90;99.90;;;;;;4024275;29;20468;-95
2020/12/14 22:45:55;;;;;;;7.53;2.53;;;10.80;99.90;;;;;;4025896;29;20209;-95
2020/12/14 22:47:56;;;;;;;6.73;2.67;;;10.80;99.90;;;;;;4040364;29;20241;-94
2020/12/14 22:49:56;;;;;;;3.83;2.30;;;10.90;99.90;;;;;;4024578;29;20179;-95
2020/12/14 22:51:57;;;;;;;5.03;2.43;;;11.00;99.90;;;;;;4024449;29;20214;-96
2020/12/14 22:53:58;;;;;;;6.00;2.50;;;11.00;99.90;;;;;;4025998;29;20227;-95
2020/12/14 22:56:04;;;;;;;6.40;2.10;;;11.20;99.90;;;;;;4025813;29;20208;-95
2020/12/14 22:58:14;;;;;;;6.93;2.43;;;11.20;99.90;;;;;;4025205;29;20181;-93
2020/12/14 23:00:20;;;;;;;5.32;2.78;;;11.30;99.90;;;;;;4045152;29;20165;-95
2020/12/14 23:02:41;;;;;;;;;;;;;;;;;;;;;
2020/12/14 23:04:53;;;;;;;6.07;2.20;;;10.80;99.90;;;;;;4043137;29;20209;-95
2020/12/14 23:07:30;;;;;;;4.90;2.30;;;10.80;99.90;;;;;;4029619;29;20716;-95
2020/12/14 23:09:43;;;;;;;8.48;2.35;;;10.90;99.90;;;;;;4028732;29;20190;-96
2020/12/14 23:11:50;;;;;;;6.50;2.00;;;10.80;99.90;;;;;;4042753;29;20525;-95
2020/12/14 23:13:54;;;;;;;5.97;2.37;;;10.80;99.90;;;;;;4041992;29;20255;-96
2020/12/14 23:15:57;;;;;;;5.03;1.98;;;10.90;99.90;;;;;;4042693;29;20273;-95
2020/12/14 23:17:58;;;;;;;4.30;2.40;;;10.90;99.90;;;;;;4030379;29;20607;-95
2020/12/14 23:20:03;;;;;;;3.70;2.50;;;10.90;99.90;;;;;;4027652;29;20371;-96
2020/12/14 23:22:27;;;;;;;6.97;2.53;;;11.00;99.90;;;;;;4026634;29;20184;-96
2020/12/14 23:24:40;;;;;;;5.90;2.30;;;11.10;99.90;;;;;;4028712;29;20179;-95
2020/12/14 23:26:59;;;;;;;6.03;2.78;;;11.20;99.90;;;;;;4026314;29;20269;-96
2020/12/14 23:29:02;;;;;;;7.53;2.90;;;11.20;99.90;;;;;;4039778;29;20630;-95
2020/12/14 23:31:09;;;;;;;5.70;2.67;;;11.30;99.90;;;;;;4029367;29;20184;-95
2020/12/14 23:33:42;;;;;;;11.03;2.40;;;11.30;99.90;;;;;;4045284;29;20177;-96
2020/12/14 23:38:40;;;;;;;;;;;;;;;;;;;;;
2020/12/14 23:40:44;;;;;;;5.33;2.53;;;11.00;99.90;;;;;;4044167;29;20186;-96
2020/12/14 23:42:54;;;;;;;8.23;2.80;;;10.90;99.90;;;;;;4030035;29;20298;-95
2020/12/14 23:45:18;;;;;;;5.90;2.83;;;11.00;99.90;;;;;;4028712;29;20178;-94
2020/12/14 23:47:19;;;;;;;6.07;3.05;;;11.20;99.90;;;;;;4042071;29;20284;-95
2020/12/14 23:49:20;;;;;;;6.90;3.33;;;11.20;99.90;;;;;;4028137;29;20182;-94
2020/12/14 23:51:36;;;;;;;4.28;2.90;;;11.20;99.90;;;;;;4013717;29;20171;-95
2020/12/14 23:53:54;;;;;;;6.83;3.17;;;11.10;99.90;;;;;;4030768;29;20198;-95
2020/12/14 23:55:58;;;;;;;8.90;3.20;;;11.10;99.90;;;;;;4012794;29;20758;-96
2020/12/14 23:58:04;;;;;;;6.57;2.95;;;11.00;99.90;;;;;;4026093;29;20214;-96
